Time;durP1;ratioP1;P1;durP2;ratioP2;P2;SDS_P1;SDS_P2;PMS_P1;PMS_P2;Temp;Humidity;BMP_temperature;BMP_pressure;BME280_temperature;BME280_humidity;BME280_pressure;Samples;Min_cycle;Max_cycle;Signal;HPM_P1;HPM_P2
2022/01/03 00:00:11;;;;;;;;;;;8.60;99.90;;;;;;5015066;28;19974;-75
2022/01/03 00:02:38;;;;;;;;;;;8.60;99.90;;;;;;5016586;28;19927;-74
2022/01/03 00:05:05;;;;;;;;;;;8.60;99.90;;;;;;5018022;28;19975;-74
2022/01/03 00:07:33;;;;;;;;;;;8.60;99.90;;;;;;5017619;28;20251;-74
2022/01/03 00:09:59;;;;;;;;;;;8.60;99.90;;;;;;5018308;28;19925;-74
2022/01/03 00:12:26;;;;;;;;;;;8.70;99.90;;;;;;5017870;28;19928;-74
2022/01/03 00:14:53;;;;;;;;;;;8.60;99.90;;;;;;5017411;28;19928;-76
2022/01/03 00:17:18;;;;;;;;;;;8.60;99.90;;;;;;5018169;28;20293;-74
2022/01/03 00:19:44;;;;;;;;;;;8.50;99.90;;;;;;5018353;28;19921;-74
2022/01/03 00:22:11;;;;;;;;;;;8.50;99.90;;;;;;5033945;28;19948;-74
2022/01/03 00:24:38;;;;;;;;;;;8.50;99.90;;;;;;5018026;28;20041;-74
2022/01/03 00:27:09;;;;;;;;;;;8.50;99.90;;;;;;5018455;28;20024;-75
2022/01/03 00:29:42;;;;;;;;;;;8.60;99.90;;;;;;5017936;28;19921;-74
2022/01/03 00:32:08;;;;;;;;;;;8.60;99.90;;;;;;5017727;28;20280;-74
2022/01/03 00:34:35;;;;;;;;;;;8.70;99.90;;;;;;5014959;28;19975;-74
2022/01/03 00:37:01;;;;;;;;;;;8.70;99.90;;;;;;5017739;28;19921;-74
2022/01/03 00:39:30;;;;;;;;;;;8.70;99.90;;;;;;5017772;28;19951;-74
2022/01/03 00:41:58;;;;;;;;;;;8.80;99.90;;;;;;5033353;28;20383;-75
2022/01/03 00:44:24;;;;;;;;;;;8.80;99.90;;;;;;5015722;28;20004;-74
2022/01/03 00:46:51;;;;;;;;;;;8.80;99.90;;;;;;5017625;28;19952;-75
2022/01/03 00:49:17;;;;;;;;;;;8.90;99.90;;;;;;5017758;28;19968;-74
2022/01/03 00:51:43;;;;;;;;;;;8.90;99.90;;;;;;5018845;28;20128;-76
2022/01/03 00:54:09;;;;;;;;;;;8.90;99.90;;;;;;5016948;28;20381;-76
2022/01/03 00:56:36;;;;;;;;;;;8.80;99.90;;;;;;5016913;28;19928;-77
2022/01/03 00:59:11;;;;;;;;;;;8.80;99.90;;;;;;5033415;28;20448;-77
2022/01/03 01:01:38;;;;;;;;;;;8.80;99.90;;;;;;5017126;28;20007;-77
2022/01/03 01:04:06;;;;;;;;;;;8.70;99.90;;;;;;5016325;28;20423;-78
2022/01/03 01:06:33;;;;;;;;;;;8.70;99.90;;;;;;5016715;28;19949;-77
2022/01/03 01:09:01;;;;;;;;;;;8.70;99.90;;;;;;5033670;28;19991;-77
2022/01/03 01:11:28;;;;;;;;;;;8.70;99.90;;;;;;5017483;28;19929;-76
2022/01/03 01:13:55;;;;;;;;;;;8.60;99.90;;;;;;5012184;28;19921;-77
2022/01/03 01:16:21;;;;;;;;;;;8.70;99.90;;;;;;4997429;28;20382;-76
2022/01/03 01:18:48;;;;;;;;;;;8.70;99.90;;;;;;4997233;28;20004;-76
2022/01/03 01:21:14;;;;;;;;;;;8.70;99.90;;;;;;5027717;28;19925;-76
2022/01/03 01:23:42;;;;;;;;;;;8.70;99.90;;;;;;5016158;28;19928;-77
2022/01/03 01:28:52;;;;;;;;;;;8.90;99.90;;;;;;5032999;28;20271;-76
2022/01/03 01:31:20;;;;;;;;;;;8.90;99.90;;;;;;5016685;28;19921;-77
2022/01/03 01:33:46;;;;;;;;;;;8.90;99.90;;;;;;5032991;28;19921;-75
2022/01/03 01:36:12;;;;;;;;;;;8.90;99.90;;;;;;5032873;28;20343;-75
2022/01/03 01:38:38;;;;;;;;;;;8.80;99.90;;;;;;5016296;28;20274;-77
2022/01/03 01:41:05;;;;;;;;;;;8.90;99.90;;;;;;5015319;28;20016;-75
2022/01/03 01:43:41;;;;;;;;;;;8.90;99.90;;;;;;5015679;28;20381;-75
2022/01/03 01:46:16;;;;;;;;;;;8.90;99.90;;;;;;5016265;28;19921;-75
2022/01/03 01:48:44;;;;;;;;;;;9.00;99.90;;;;;;5016038;28;20381;-75
2022/01/03 01:51:11;;;;;;;;;;;9.00;99.90;;;;;;5016068;28;19921;-75
2022/01/03 01:53:44;;;;;;;;;;;9.00;99.90;;;;;;5031953;28;19928;-75
2022/01/03 01:56:25;;;;;;;;;;;9.00;99.90;;;;;;5015577;28;20374;-75
2022/01/03 01:58:54;;;;;;;;;;;9.10;99.90;;;;;;5015811;28;19921;-75
2022/01/03 02:01:20;;;;;;;;;;;9.00;99.90;;;;;;5015870;28;19921;-75
2022/01/03 02:03:53;;;;;;;;;;;9.00;99.90;;;;;;4999174;28;22354;-75
2022/01/03 02:06:18;;;;;;;;;;;8.90;99.90;;;;;;5032155;28;20340;-75
2022/01/03 02:08:49;;;;;;;;;;;8.80;99.90;;;;;;5031777;28;19967;-75
2022/01/03 02:11:23;;;;;;;;;;;8.80;99.90;;;;;;5015869;28;19928;-75
2022/01/03 02:13:49;;;;;;;;;;;8.70;99.90;;;;;;5015566;28;19943;-75
2022/01/03 02:16:15;;;;;;;;;;;8.70;99.90;;;;;;5015899;28;20373;-76
2022/01/03 02:18:43;;;;;;;;;;;8.60;99.90;;;;;;5031453;28;19928;-75
2022/01/03 02:21:08;;;;;;;;;;;8.70;99.90;;;;;;5015396;28;19960;-76
2022/01/03 02:23:35;;;;;;;;;;;8.50;99.90;;;;;;5031199;28;19967;-75
2022/01/03 02:26:01;;;;;;;;;;;8.50;99.90;;;;;;5030836;28;19921;-75
2022/01/03 02:28:26;;;;;;;;;;;8.50;99.90;;;;;;5015030;28;19932;-77
2022/01/03 02:30:52;;;;;;;;;;;8.50;99.90;;;;;;5014907;28;20012;-75
2022/01/03 02:33:18;;;;;;;;;;;8.40;99.90;;;;;;5031639;28;19921;-75
2022/01/03 02:35:45;;;;;;;;;;;8.40;99.90;;;;;;5032885;28;19996;-75
2022/01/03 02:38:13;;;;;;;;;;;8.40;99.90;;;;;;5031839;28;19928;-76
2022/01/03 02:40:38;;;;;;;;;;;8.40;99.90;;;;;;5015148;28;20452;-78
2022/01/03 02:43:04;;;;;;;;;;;8.40;99.90;;;;;;5031358;28;20004;-77
2022/01/03 02:45:30;;;;;;;;;;;8.40;99.90;;;;;;5020440;28;19996;-76
2022/01/03 02:47:57;;;;;;;;;;;8.30;99.90;;;;;;5013071;28;19925;-77
2022/01/03 02:50:23;;;;;;;;;;;8.30;99.90;;;;;;5011761;28;20376;-77
2022/01/03 02:52:49;;;;;;;;;;;8.30;99.90;;;;;;5026978;28;19921;-76
2022/01/03 02:55:16;;;;;;;;;;;8.20;99.90;;;;;;5015009;28;20323;-76
2022/01/03 02:57:43;;;;;;;;;;;8.30;99.90;;;;;;5031726;28;19921;-76
2022/01/03 03:00:11;;;;;;;;;;;8.20;99.90;;;;;;5014636;28;19921;-76
2022/01/03 03:02:36;;;;;;;;;;;8.20;99.90;;;;;;5014424;28;21598;-76
2022/01/03 03:05:04;;;;;;;;;;;8.20;99.90;;;;;;5014928;28;19921;-76
2022/01/03 03:07:30;;;;;;;;;;;8.20;99.90;;;;;;5031423;28;19925;-76
2022/01/03 03:09:56;;;;;;;;;;;8.20;99.90;;;;;;5015615;28;20411;-76
2022/01/03 03:12:22;;;;;;;;;;;8.20;99.90;;;;;;5031388;28;19947;-76
2022/01/03 03:14:49;;;;;;;;;;;8.20;99.90;;;;;;5015656;28;19929;-76
2022/01/03 03:17:14;;;;;;;;;;;8.10;99.90;;;;;;5031425;28;20389;-77
2022/01/03 03:19:50;;;;;;;;;;;8.10;99.90;;;;;;5015498;28;19970;-77
2022/01/03 03:22:16;;;;;;;;;;;8.10;99.90;;;;;;5014089;28;19921;-76
2022/01/03 03:24:41;;;;;;;;;;;8.00;99.90;;;;;;5014282;28;19928;-76
2022/01/03 03:27:10;;;;;;;;;;;8.10;99.90;;;;;;5014438;28;19925;-76
2022/01/03 03:29:41;;;;;;;;;;;8.00;99.90;;;;;;5014530;28;19927;-77
2022/01/03 03:32:07;;;;;;;;;;;8.10;99.90;;;;;;5013985;28;20312;-76
2022/01/03 03:34:32;;;;;;;;;;;8.10;99.90;;;;;;5014105;28;19921;-76
2022/01/03 03:36:58;;;;;;;;;;;8.10;99.90;;;;;;5014360;28;19921;-77
2022/01/03 03:39:24;;;;;;;;;;;8.10;99.90;;;;;;5014183;28;19925;-77
2022/01/03 03:41:49;;;;;;;;;;;8.20;99.90;;;;;;5030127;28;19928;-76
2022/01/03 03:44:15;;;;;;;;;;;8.30;99.90;;;;;;5013840;28;19971;-77
2022/01/03 03:46:40;;;;;;;;;;;8.30;99.90;;;;;;5014110;28;19925;-77
2022/01/03 03:49:07;;;;;;;;;;;8.30;99.90;;;;;;5030750;28;19983;-77
2022/01/03 03:51:38;;;;;;;;;;;8.40;99.90;;;;;;5014466;28;20336;-76
2022/01/03 03:54:04;;;;;;;;;;;8.40;99.90;;;;;;5013701;28;19959;-77
2022/01/03 03:56:29;;;;;;;;;;;8.50;99.90;;;;;;5014275;28;19921;-77
2022/01/03 03:58:55;;;;;;;;;;;8.50;99.90;;;;;;5014193;28;19975;-77
2022/01/03 04:01:21;;;;;;;;;;;8.60;99.90;;;;;;5030874;28;19937;-77
2022/01/03 04:03:46;;;;;;;;;;;8.60;99.90;;;;;;5010465;28;19921;-77
2022/01/03 04:06:12;;;;;;;;;;;8.70;99.90;;;;;;5017390;28;20357;-76
2022/01/03 04:08:37;;;;;;;;;;;8.70;99.90;;;;;;5013939;28;19925;-76
2022/01/03 04:11:03;;;;;;;;;;;8.70;99.90;;;;;;5014131;28;20411;-77
2022/01/03 04:13:28;;;;;;;;;;;8.80;99.90;;;;;;5031489;28;19921;-76
2022/01/03 04:15:54;;;;;;;;;;;8.70;99.90;;;;;;5030471;28;20354;-77
2022/01/03 04:18:19;;;;;;;;;;;8.60;99.90;;;;;;5030271;28;19927;-76
2022/01/03 04:20:45;;;;;;;;;;;8.60;99.90;;;;;;5013787;28;19940;-77
2022/01/03 04:23:11;;;;;;;;;;;8.60;99.90;;;;;;5013614;28;19993;-77
2022/01/03 04:25:36;;;;;;;;;;;8.60;99.90;;;;;;5030699;28;19944;-77
2022/01/03 04:28:02;;;;;;;;;;;8.60;99.90;;;;;;5014157;28;19932;-76
2022/01/03 04:30:27;;;;;;;;;;;8.60;99.90;;;;;;5030080;28;19921;-75
2022/01/03 04:32:53;;;;;;;;;;;8.60;99.90;;;;;;5013320;28;19921;-76
2022/01/03 04:35:19;;;;;;;;;;;8.60;99.90;;;;;;5030157;28;19928;-75
2022/01/03 04:37:44;;;;;;;;;;;8.60;99.90;;;;;;5013479;28;20332;-75
2022/01/03 04:40:10;;;;;;;;;;;8.70;99.90;;;;;;5013738;28;19921;-75
2022/01/03 04:42:35;;;;;;;;;;;8.60;99.90;;;;;;5013194;28;19921;-76
2022/01/03 04:45:02;;;;;;;;;;;8.60;99.90;;;;;;5029908;28;19921;-75
2022/01/03 04:47:28;;;;;;;;;;;8.70;99.90;;;;;;5013858;28;19976;-75
2022/01/03 04:49:53;;;;;;;;;;;8.70;99.90;;;;;;5016409;28;19987;-75
2022/01/03 04:52:19;;;;;;;;;;;8.70;99.90;;;;;;5033775;28;20408;-76
2022/01/03 04:54:45;;;;;;;;;;;8.70;99.90;;;;;;5017110;28;20369;-75
2022/01/03 04:57:10;;;;;;;;;;;8.70;99.90;;;;;;5033236;28;19932;-75
2022/01/03 04:59:36;;;;;;;;;;;8.60;99.90;;;;;;5017198;28;20099;-75
2022/01/03 05:02:03;;;;;;;;;;;8.60;99.90;;;;;;5033949;28;19921;-76
2022/01/03 05:04:29;;;;;;;;;;;8.50;99.90;;;;;;5017097;28;20305;-75
2022/01/03 05:06:55;;;;;;;;;;;8.50;99.90;;;;;;5016658;28;19925;-76
2022/01/03 05:09:20;;;;;;;;;;;8.50;99.90;;;;;;5016895;28;19983;-75
2022/01/03 05:11:46;;;;;;;;;;;8.40;99.90;;;;;;5016523;28;19922;-75
2022/01/03 05:14:11;;;;;;;;;;;8.40;99.90;;;;;;5016290;28;20000;-76
2022/01/03 05:16:37;;;;;;;;;;;8.40;99.90;;;;;;5016855;28;19964;-75
2022/01/03 05:19:03;;;;;;;;;;;8.40;99.90;;;;;;5016698;28;19991;-75
2022/01/03 05:21:28;;;;;;;;;;;8.40;99.90;;;;;;5016605;28;19953;-75
2022/01/03 05:23:54;;;;;;;;;;;8.40;99.90;;;;;;5012806;28;19979;-75
2022/01/03 05:26:19;;;;;;;;;;;8.50;99.90;;;;;;4997418;28;19928;-76
2022/01/03 05:28:48;;;;;;;;;;;8.40;99.90;;;;;;5009323;28;19928;-75
2022/01/03 05:31:14;;;;;;;;;;;8.40;99.90;;;;;;5016367;28;20016;-77
2022/01/03 05:33:40;;;;;;;;;;;8.40;99.90;;;;;;5032441;28;19925;-76
2022/01/03 05:36:05;;;;;;;;;;;8.40;99.90;;;;;;5032793;28;20385;-75
2022/01/03 05:38:31;;;;;;;;;;;8.30;99.90;;;;;;5032270;28;19921;-75
2022/01/03 05:40:56;;;;;;;;;;;8.30;99.90;;;;;;5015757;28;19929;-76
2022/01/03 05:43:22;;;;;;;;;;;8.20;99.90;;;;;;5015962;28;19921;-76
2022/01/03 05:45:48;;;;;;;;;;;8.20;99.90;;;;;;5016388;28;19932;-76
2022/01/03 05:48:13;;;;;;;;;;;8.20;99.90;;;;;;5016147;28;19936;-74
2022/01/03 05:50:39;;;;;;;;;;;8.10;99.90;;;;;;5015588;28;19921;-76
2022/01/03 05:53:04;;;;;;;;;;;8.10;99.90;;;;;;5015339;28;19928;-76
2022/01/03 05:55:30;;;;;;;;;;;8.10;99.90;;;;;;5032483;28;19921;-76
2022/01/03 05:57:55;;;;;;;;;;;8.10;99.90;;;;;;5032089;28;19928;-76
2022/01/03 06:00:23;;;;;;;;;;;8.00;99.90;;;;;;5015778;28;19931;-76
2022/01/03 06:02:54;;;;;;;;;;;8.00;99.90;;;;;;5031995;28;20400;-75
2022/01/03 06:05:32;;;;;;;;;;;8.00;99.90;;;;;;5015670;28;20016;-76
2022/01/03 06:07:58;;;;;;;;;;;8.00;99.90;;;;;;5015631;28;19972;-76
2022/01/03 06:10:24;;;;;;;;;;;7.90;99.90;;;;;;5015931;28;19976;-75
2022/01/03 06:12:49;;;;;;;;;;;7.90;99.90;;;;;;5031656;28;20651;-75
2022/01/03 06:15:15;;;;;;;;;;;7.90;99.90;;;;;;5016222;28;19921;-76
2022/01/03 06:17:44;;;;;;;;;;;7.90;99.90;;;;;;5015313;28;20408;-76
2022/01/03 06:20:09;;;;;;;;;;;7.90;99.90;;;;;;5015669;28;19964;-76
2022/01/03 06:22:35;;;;;;;;;;;7.90;99.90;;;;;;5014733;28;19968;-76
2022/01/03 06:25:00;;;;;;;;;;;7.90;99.90;;;;;;5015298;28;20004;-75
2022/01/03 06:27:26;;;;;;;;;;;7.90;99.90;;;;;;5011601;28;19926;-75
2022/01/03 06:29:51;;;;;;;;;;;8.00;99.90;;;;;;4995797;28;19932;-76
2022/01/03 06:32:17;;;;;;;;;;;8.00;99.90;;;;;;5013152;28;20023;-76
2022/01/03 06:34:43;;;;;;;;;;;7.90;99.90;;;;;;5014522;28;19928;-75
2022/01/03 06:37:08;;;;;;;;;;;7.90;99.90;;;;;;5031495;28;20423;-76
2022/01/03 06:39:34;;;;;;;;;;;7.90;99.90;;;;;;5031322;28;20309;-76
2022/01/03 06:41:59;;;;;;;;;;;8.00;99.90;;;;;;5014683;28;19979;-75
2022/01/03 06:44:25;;;;;;;;;;;8.00;99.90;;;;;;5014968;28;19928;-76
2022/01/03 06:46:51;;;;;;;;;;;8.10;99.90;;;;;;5031254;28;20382;-75
2022/01/03 06:49:17;;;;;;;;;;;8.10;99.90;;;;;;5031458;28;19921;-76
2022/01/03 06:51:43;;;;;;;;;;;8.20;99.90;;;;;;5014756;28;19928;-76
2022/01/03 06:54:11;;;;;;;;;;;8.20;99.90;;;;;;5014881;28;19921;-75
2022/01/03 06:56:37;;;;;;;;;;;8.30;99.90;;;;;;5015096;28;19925;-75
2022/01/03 06:59:03;;;;;;;;;;;8.30;99.90;;;;;;5014681;28;19967;-75
2022/01/03 07:01:29;;;;;;;;;;;8.30;99.90;;;;;;5014745;28;19928;-75
2022/01/03 07:03:54;;;;;;;;;;;8.40;99.90;;;;;;5014867;28;19921;-75
2022/01/03 07:06:20;;;;;;;;;;;8.30;99.90;;;;;;5031641;28;20019;-74
2022/01/03 07:08:45;;;;;;;;;;;8.30;99.90;;;;;;5030692;28;19936;-75
2022/01/03 07:11:11;;;;;;;;;;;8.20;99.90;;;;;;5031855;28;19925;-75
2022/01/03 07:13:49;;;;;;;;;;;8.20;99.90;;;;;;5014150;28;19973;-75
2022/01/03 07:19:00;;;;;;;;;;;8.20;99.90;;;;;;5030777;28;19921;-74
2022/01/03 07:21:27;;;;;;;;;;;8.20;99.90;;;;;;5030873;28;19921;-75
2022/01/03 07:23:52;;;;;;;;;;;8.20;99.90;;;;;;5030193;28;19986;-75
2022/01/03 07:26:18;;;;;;;;;;;8.20;99.90;;;;;;5013843;28;19929;-75
2022/01/03 07:28:43;;;;;;;;;;;8.20;99.90;;;;;;5023428;28;19929;-76
2022/01/03 07:31:09;;;;;;;;;;;8.30;99.90;;;;;;5014577;28;20385;-78
2022/01/03 07:33:35;;;;;;;;;;;8.30;99.90;;;;;;5016950;28;19975;-77
2022/01/03 07:36:01;;;;;;;;;;;8.20;99.90;;;;;;5034854;28;20442;-77
2022/01/03 07:38:29;;;;;;;;;;;8.30;99.90;;;;;;5015471;28;20004;-77
2022/01/03 07:40:54;;;;;;;;;;;8.40;99.90;;;;;;5030591;28;19928;-77
2022/01/03 07:43:20;;;;;;;;;;;8.40;99.90;;;;;;5011448;28;19921;-77
2022/01/03 07:45:46;;;;;;;;;;;8.50;99.90;;;;;;5008002;28;19975;-78
2022/01/03 07:48:11;;;;;;;;;;;8.50;99.90;;;;;;5012688;28;19925;-76
2022/01/03 07:50:37;;;;;;;;;;;8.70;99.90;;;;;;5013986;28;20301;-75
2022/01/03 07:53:04;;;;;;;;;;;8.70;99.90;;;;;;5014211;28;19921;-76
2022/01/03 07:55:30;;;;;;;;;;;8.70;99.90;;;;;;5013975;28;19943;-75
2022/01/03 07:57:56;;;;;;;;;;;8.80;99.90;;;;;;5010620;28;19921;-76
2022/01/03 08:00:21;;;;;;;;;;;8.80;99.90;;;;;;5015117;28;20032;-76
2022/01/03 08:02:47;;;;;;;;;;;8.90;99.90;;;;;;5030187;28;19988;-79
2022/01/03 08:05:14;;;;;;;;;;;8.90;99.90;;;;;;5020348;28;19928;-75
2022/01/03 08:07:40;;;;;;;;;;;8.90;99.90;;;;;;5050579;28;20408;-77
2022/01/03 08:10:07;;;;;;;;;;;9.00;99.90;;;;;;5007604;28;19922;-76
2022/01/03 08:12:33;;;;;;;;;;;9.00;99.90;;;;;;5010398;28;19981;-76
2022/01/03 08:14:59;;;;;;;;;;;9.00;99.90;;;;;;4993872;28;20428;-76
2022/01/03 08:17:27;;;;;;;;;;;9.10;99.90;;;;;;4996053;28;20285;-76
2022/01/03 08:19:53;;;;;;;;;;;9.10;99.90;;;;;;5014179;28;19922;-76
2022/01/03 08:22:18;;;;;;;;;;;9.00;99.90;;;;;;5013495;28;19921;-76
2022/01/03 08:24:44;;;;;;;;;;;9.10;99.90;;;;;;5017405;28;19933;-76
2022/01/03 08:27:10;;;;;;;;;;;9.00;99.90;;;;;;5017926;28;20400;-76
2022/01/03 08:29:35;;;;;;;;;;;9.00;99.90;;;;;;5034410;28;19921;-76
2022/01/03 08:32:01;;;;;;;;;;;9.00;99.90;;;;;;5033555;28;19972;-76
2022/01/03 08:34:27;;;;;;;;;;;9.10;99.90;;;;;;5034119;28;20051;-77
2022/01/03 08:36:55;;;;;;;;;;;9.10;99.90;;;;;;5025288;28;20369;-77
2022/01/03 08:39:20;;;;;;;;;;;9.00;99.90;;;;;;5054229;28;19967;-77
2022/01/03 08:41:46;;;;;;;;;;;9.10;99.90;;;;;;5052177;28;19921;-76
2022/01/03 08:44:15;;;;;;;;;;;9.10;99.90;;;;;;5028579;28;19960;-77
2022/01/03 08:46:41;;;;;;;;;;;9.20;99.90;;;;;;5016690;28;19925;-77
2022/01/03 08:49:06;;;;;;;;;;;9.10;99.90;;;;;;5029542;28;19925;-78
2022/01/03 08:51:32;;;;;;;;;;;9.20;99.90;;;;;;5033633;28;19921;-76
2022/01/03 08:53:59;;;;;;;;;;;9.20;99.90;;;;;;5022772;28;20329;-76
2022/01/03 08:56:25;;;;;;;;;;;9.30;99.90;;;;;;5009385;28;20003;-76
2022/01/03 08:58:50;;;;;;;;;;;9.40;99.90;;;;;;5031740;28;20370;-77
2022/01/03 09:01:16;;;;;;;;;;;9.30;99.90;;;;;;5016914;28;19936;-77
2022/01/03 09:03:42;;;;;;;;;;;9.40;99.90;;;;;;5017263;28;19925;-77
2022/01/03 09:06:07;;;;;;;;;;;9.40;99.90;;;;;;5017477;28;19932;-77
2022/01/03 09:08:33;;;;;;;;;;;9.40;99.90;;;;;;5016810;28;20440;-77
2022/01/03 09:10:58;;;;;;;;;;;9.40;99.90;;;;;;5016995;28;20300;-77
2022/01/03 09:13:24;;;;;;;;;;;9.40;99.90;;;;;;5013001;28;19921;-78
2022/01/03 09:15:50;;;;;;;;;;;9.40;99.90;;;;;;5010205;28;19925;-77
2022/01/03 09:18:17;;;;;;;;;;;9.50;99.90;;;;;;5015936;28;19921;-77
2022/01/03 09:20:43;;;;;;;;;;;9.50;99.90;;;;;;5011367;28;19927;-77
2022/01/03 09:23:14;;;;;;;;;;;9.60;99.90;;;;;;5013882;28;20277;-77
2022/01/03 09:30:50;;;;;;;;;;;9.80;99.90;;;;;;5024628;28;19921;-78
2022/01/03 09:33:16;;;;;;;;;;;9.80;99.90;;;;;;5014191;28;19929;-77
2022/01/03 09:35:42;;;;;;;;;;;9.80;99.90;;;;;;5015654;28;20289;-76
2022/01/03 09:38:08;;;;;;;;;;;9.70;99.90;;;;;;5016255;28;19925;-77
2022/01/03 09:40:34;;;;;;;;;;;9.80;99.90;;;;;;5021913;28;19984;-77
2022/01/03 09:43:01;;;;;;;;;;;9.70;99.90;;;;;;5033211;28;19921;-78
2022/01/03 09:45:28;;;;;;;;;;;9.70;99.90;;;;;;5024374;28;19928;-77
2022/01/03 09:47:54;;;;;;;;;;;9.70;99.90;;;;;;5017346;28;19984;-77
2022/01/03 09:50:21;;;;;;;;;;;9.70;99.90;;;;;;5016526;28;20355;-77
2022/01/03 09:52:47;;;;;;;;;;;9.80;99.90;;;;;;5006325;28;19982;-78
2022/01/03 09:55:17;;;;;;;;;;;9.90;99.90;;;;;;5032081;28;19925;-77
2022/01/03 09:57:45;;;;;;;;;;;9.90;99.90;;;;;;5012721;28;19990;-77
2022/01/03 10:00:12;;;;;;;;;;;9.80;99.90;;;;;;5032254;28;19921;-77
2022/01/03 10:02:38;;;;;;;;;;;9.80;99.90;;;;;;5014507;28;19925;-77
2022/01/03 10:05:06;;;;;;;;;;;9.80;99.90;;;;;;5015326;28;20286;-78
2022/01/03 10:07:34;;;;;;;;;;;9.80;99.90;;;;;;5031834;28;20305;-77
2022/01/03 10:10:00;;;;;;;;;;;9.80;99.90;;;;;;5014674;28;19921;-76
2022/01/03 10:12:27;;;;;;;;;;;9.70;99.90;;;;;;5015683;28;19979;-77
2022/01/03 10:14:57;;;;;;;;;;;9.80;99.90;;;;;;5024807;28;20377;-77
2022/01/03 10:17:22;;;;;;;;;;;9.90;99.90;;;;;;5017233;28;19921;-77
2022/01/03 10:19:48;;;;;;;;;;;10.00;99.90;;;;;;5010360;28;19921;-77
2022/01/03 10:22:25;;;;;;;;;;;10.10;99.90;;;;;;5024286;28;19924;-78
2022/01/03 10:24:51;;;;;;;;;;;10.20;99.90;;;;;;5014941;28;20266;-78
2022/01/03 10:27:17;;;;;;;;;;;10.30;99.90;;;;;;5012220;28;19929;-78
2022/01/03 10:29:52;;;;;;;;;;;10.40;99.90;;;;;;5013756;28;20333;-78
2022/01/03 10:32:23;;;;;;;;;;;10.40;99.90;;;;;;5001266;28;19972;-78
2022/01/03 10:34:49;;;;;;;;;;;10.40;99.90;;;;;;5031913;28;19925;-78
2022/01/03 10:37:15;;;;;;;;;;;10.50;99.90;;;;;;5012659;28;19928;-78
2022/01/03 10:39:43;;;;;;;;;;;10.40;99.90;;;;;;5012684;28;19978;-78
2022/01/03 10:42:19;;;;;;;;;;;10.40;99.90;;;;;;5014345;28;20382;-78
2022/01/03 10:44:45;;;;;;;;;;;10.40;99.90;;;;;;5004651;28;19983;-77
2022/01/03 10:47:14;;;;;;;;;;;10.40;99.90;;;;;;4999985;28;19932;-78
2022/01/03 10:49:40;;;;;;;;;;;10.30;99.90;;;;;;5014559;28;19921;-78
2022/01/03 10:52:10;;;;;;;;;;;10.30;99.90;;;;;;5014505;28;19971;-78
2022/01/03 10:54:41;;;;;;;;;;;10.30;99.90;;;;;;5014797;28;19947;-78
2022/01/03 10:57:06;;;;;;;;;;;10.40;99.90;;;;;;5031508;28;19921;-78
2022/01/03 10:59:34;;;;;;;;;;;10.60;99.90;;;;;;5009665;28;19922;-78
2022/01/03 11:02:05;;;;;;;;;;;10.60;99.90;;;;;;5029112;28;19921;-78
2022/01/03 11:04:52;;;;;;;;;;;10.70;99.90;;;;;;5018954;28;19933;-78
2022/01/03 11:13:23;;;;;;;;;;;10.70;99.90;;;;;;5025920;28;20440;-78
2022/01/03 11:15:55;;;;;;;;;;;10.70;99.90;;;;;;5033490;28;19921;-78
2022/01/03 11:18:28;;;;;;;;;;;10.70;99.90;;;;;;5014942;28;19925;-76
2022/01/03 11:21:11;;;;;;;;;;;10.60;99.90;;;;;;5015155;28;19925;-75
2022/01/03 11:23:38;;;;;;;;;;;10.60;99.90;;;;;;5008865;28;19921;-76
2022/01/03 11:26:05;;;;;;;;;;;10.60;99.90;;;;;;5030296;28;19943;-76
2022/01/03 11:28:30;;;;;;;;;;;10.60;99.90;;;;;;5014254;28;20019;-76
2022/01/03 11:30:57;;;;;;;;;;;10.70;99.90;;;;;;5014950;28;20397;-76
2022/01/03 11:33:23;;;;;;;;;;;10.80;99.90;;;;;;5029720;28;19999;-75
2022/01/03 11:35:49;;;;;;;;;;;10.90;99.90;;;;;;5030935;28;20320;-76
2022/01/03 11:38:19;;;;;;;;;;;11.10;99.90;;;;;;5014779;28;19990;-75
2022/01/03 11:40:44;;;;;;;;;;;11.20;99.90;;;;;;5014299;28;19988;-76
2022/01/03 11:43:10;;;;;;;;;;;11.30;99.90;;;;;;5013232;28;19929;-76
2022/01/03 11:45:36;;;;;;;;;;;11.70;99.90;;;;;;5014426;28;19971;-76
2022/01/03 11:48:02;;;;;;;;;;;11.90;99.90;;;;;;5014095;28;19925;-76
2022/01/03 11:50:27;;;;;;;;;;;12.20;99.90;;;;;;5014765;28;19929;-76
2022/01/03 11:52:53;;;;;;;;;;;12.20;99.90;;;;;;5013926;28;19991;-76
2022/01/03 11:55:24;;;;;;;;;;;12.30;99.90;;;;;;5030536;28;19934;-76
2022/01/03 12:06:15;;;;;;;;;;;12.30;99.90;;;;;;5034669;28;19922;-77
2022/01/03 12:08:53;;;;;;;;;;;12.50;99.90;;;;;;4997359;28;19925;-77
2022/01/03 12:11:20;;;;;;;;;;;12.70;99.90;;;;;;5034181;28;19975;-77
2022/01/03 12:13:47;;;;;;;;;;;12.60;99.90;;;;;;5017214;28;19922;-76
2022/01/03 12:16:12;;;;;;;;;;;12.30;99.90;;;;;;5035751;28;19940;-76
2022/01/03 12:18:38;;;;;;;;;;;12.50;99.90;;;;;;5009861;28;19932;-77
2022/01/03 12:21:04;;;;;;;;;;;12.70;99.90;;;;;;5020811;28;20414;-77
2022/01/03 12:23:43;;;;;;;;;;;12.80;99.90;;;;;;5016616;28;20281;-76
2022/01/03 12:26:11;;;;;;;;;;;13.00;99.90;;;;;;5015635;28;19929;-76
2022/01/03 12:28:55;;;;;;;;;;;13.00;99.90;;;;;;5017062;28;20412;-77
2022/01/03 12:31:20;;;;;;;;;;;13.30;99.90;;;;;;5010629;28;19921;-77
2022/01/03 12:34:16;;;;;;;;;;;13.70;99.90;;;;;;5017307;28;20012;-77
2022/01/03 12:36:41;;;;;;;;;;;13.40;99.90;;;;;;5034380;28;19968;-76
2022/01/03 12:39:08;;;;;;;;;;;13.00;99.90;;;;;;5035158;28;19960;-77
2022/01/03 12:41:44;;;;;;;;;;;13.00;99.90;;;;;;5017297;28;19975;-77
2022/01/03 12:44:11;;;;;;;;;;;13.00;99.90;;;;;;5016635;28;19928;-77
2022/01/03 12:46:36;;;;;;;;;;;13.00;99.90;;;;;;5034777;28;19921;-77
2022/01/03 12:49:20;;;;;;;;;;;12.80;99.90;;;;;;5018820;28;19928;-78
2022/01/03 12:54:43;;;;;;;;;;;12.50;99.90;;;;;;5551857;22;19986;-75
2022/01/03 12:57:26;;;;;;;;;;;;;;;;;;;;;
2022/01/03 12:59:54;;;;;;;;;;;12.20;99.90;;;;;;5051517;28;20358;-75
2022/01/03 13:02:32;;;;;;;;;;;11.90;99.90;;;;;;5069530;28;19921;-75
2022/01/03 13:04:58;;;;;;;;;;;11.70;99.90;;;;;;5035966;28;19928;-75
2022/01/03 13:07:24;;;;;;;;;;;11.60;99.90;;;;;;5029555;28;19970;-75
2022/01/03 13:09:49;;;;;;;;;;;11.50;99.90;;;;;;5034914;28;19936;-75
2022/01/03 13:12:15;;;;;;;;;;;11.50;99.90;;;;;;5036079;28;19921;-77
2022/01/03 13:14:40;;;;;;;;;;;11.60;99.90;;;;;;5035361;28;19921;-75
2022/01/03 13:17:06;;;;;;;;;;;11.60;99.90;;;;;;5036057;28;20585;-75
2022/01/03 13:19:33;;;;;;;;;;;11.60;99.90;;;;;;5035782;28;19928;-75
2022/01/03 13:22:06;;;;;;;;;;;11.60;99.90;;;;;;5035826;28;20393;-75
2022/01/03 13:24:33;;;;;;;;;;;11.50;99.90;;;;;;5036220;28;19920;-75
2022/01/03 13:27:16;;;;;;;;;;;11.40;99.90;;;;;;5052905;28;19924;-76
2022/01/03 13:29:44;;;;;;;;;;;11.30;99.90;;;;;;5036084;28;19924;-76
2022/01/03 13:32:13;;;;;;;;;;;11.30;99.90;;;;;;5035400;28;19921;-75
2022/01/03 13:34:38;;;;;;;;;;;11.40;99.90;;;;;;5035072;28;19921;-75
2022/01/03 13:37:06;;;;;;;;;;;11.40;99.90;;;;;;5051550;28;19927;-77
2022/01/03 13:39:34;;;;;;;;;;;11.30;99.90;;;;;;5029242;28;20483;-77
2022/01/03 13:42:05;;;;;;;;;;;11.30;99.90;;;;;;5036984;28;19921;-77
2022/01/03 13:50:04;;;;;;;;;;;11.10;99.90;;;;;;5053515;28;19970;-77
2022/01/03 13:52:31;;;;;;;;;;;11.10;99.90;;;;;;5053241;28;19925;-77
2022/01/03 13:55:02;;;;;;;;;;;11.00;99.90;;;;;;5036338;28;19928;-77
2022/01/03 13:57:37;;;;;;;;;;;10.90;99.90;;;;;;5037267;28;20376;-77
2022/01/03 14:00:04;;;;;;;;;;;10.80;99.90;;;;;;5036217;28;20426;-78
2022/01/03 14:02:30;;;;;;;;;;;10.70;99.90;;;;;;5053251;28;19925;-75
2022/01/03 14:04:56;;;;;;;;;;;10.70;99.90;;;;;;5052284;28;19921;-77
2022/01/03 14:07:22;;;;;;;;;;;10.60;99.90;;;;;;5035992;28;19920;-77
2022/01/03 14:09:57;;;;;;;;;;;10.50;99.90;;;;;;5051365;28;19986;-76
2022/01/03 14:12:23;;;;;;;;;;;10.50;99.90;;;;;;5047372;28;19982;-77
2022/01/03 14:14:53;;;;;;;;;;;10.50;99.90;;;;;;5033832;28;20280;-76
2022/01/03 14:17:21;;;;;;;;;;;10.40;99.90;;;;;;5052228;28;20051;-76
2022/01/03 14:19:57;;;;;;;;;;;10.50;99.90;;;;;;5035371;28;20012;-77
2022/01/03 14:22:22;;;;;;;;;;;10.40;99.90;;;;;;5040236;28;19928;-77
2022/01/03 14:25:00;;;;;;;;;;;10.30;99.90;;;;;;5049645;28;19921;-76
2022/01/03 14:27:30;;;;;;;;;;;10.30;99.90;;;;;;5035500;28;19921;-76
2022/01/03 14:30:09;;;;;;;;;;;10.20;99.90;;;;;;5052105;28;19925;-76
2022/01/03 14:32:37;;;;;;;;;;;10.20;99.90;;;;;;5035118;28;19925;-76
2022/01/03 14:35:05;;;;;;;;;;;10.10;99.90;;;;;;5034896;28;20023;-76
2022/01/03 14:37:32;;;;;;;;;;;10.10;99.90;;;;;;5050928;28;19929;-76
2022/01/03 14:39:59;;;;;;;;;;;10.00;99.90;;;;;;5034755;28;19968;-76
2022/01/03 14:42:29;;;;;;;;;;;10.00;99.90;;;;;;5051519;28;19921;-77
2022/01/03 14:45:06;;;;;;;;;;;9.90;99.90;;;;;;5021977;28;19927;-76
2022/01/03 14:47:32;;;;;;;;;;;9.90;99.90;;;;;;5015495;28;19944;-77
2022/01/03 14:50:00;;;;;;;;;;;9.90;99.90;;;;;;5032677;28;20372;-76
2022/01/03 14:52:32;;;;;;;;;;;9.80;99.90;;;;;;5034973;28;19925;-76
2022/01/03 14:54:58;;;;;;;;;;;9.80;99.90;;;;;;5015273;28;19991;-76
2022/01/03 14:57:27;;;;;;;;;;;9.80;99.90;;;;;;5030667;28;20400;-77
2022/01/03 15:00:00;;;;;;;;;;;9.70;99.90;;;;;;5031683;28;19928;-76
2022/01/03 15:02:29;;;;;;;;;;;9.70;99.90;;;;;;5046743;28;19943;-76